Time;durP1;ratioP1;P1;durP2;ratioP2;P2;SDS_P1;SDS_P2;PMS_P1;PMS_P2;Temp;Humidity;BMP_temperature;BMP_pressure;BME280_temperature;BME280_humidity;BME280_pressure;Samples;Min_cycle;Max_cycle;Signal;HPM_P1;HPM_P2
2021/08/13 00:01:05;;;;;;;6.60;5.25;;;;;;;19.07;68.73;101061.19;4966035;28;20492;-76
2021/08/13 00:03:31;;;;;;;7.13;5.68;;;;;;;19.09;69.09;101064.72;4962579;28;20031;-75
2021/08/13 00:05:56;;;;;;;8.05;6.85;;;;;;;18.98;70.49;101064.19;4961407;28;20054;-76
2021/08/13 00:08:22;;;;;;;9.20;7.13;;;;;;;19.00;70.12;101073.06;4965938;28;20035;-75
2021/08/13 00:10:47;;;;;;;10.07;6.50;;;;;;;18.99;70.01;101061.50;4962620;28;20047;-76
2021/08/13 00:13:12;;;;;;;8.75;7.30;;;;;;;19.07;69.44;101065.69;4968324;28;20042;-76
2021/08/13 00:15:38;;;;;;;10.20;8.93;;;;;;;19.14;68.46;101061.88;4964742;28;20031;-75
2021/08/13 00:18:03;;;;;;;9.35;7.72;;;;;;;19.21;68.32;101064.31;4965212;28;20464;-75
2021/08/13 00:20:29;;;;;;;26.58;22.48;;;;;;;19.25;68.23;101055.25;4963048;28;20039;-76
2021/08/13 00:22:54;;;;;;;14.15;12.10;;;;;;;19.24;67.96;101058.84;4975001;28;20035;-75
2021/08/13 00:25:20;;;;;;;9.90;8.90;;;;;;;19.23;68.11;101062.47;4971832;28;20397;-75
2021/08/13 00:27:46;;;;;;;8.90;7.68;;;;;;;19.21;68.65;101060.78;4963083;28;20039;-75
2021/08/13 00:30:13;;;;;;;8.07;6.93;;;;;;;19.17;69.10;101057.31;4947237;28;20046;-75
2021/08/13 00:32:39;;;;;;;9.05;6.88;;;;;;;19.20;69.03;101059.00;4953527;28;20121;-75
2021/08/13 00:35:05;;;;;;;7.95;7.00;;;;;;;19.11;69.47;101062.88;4946739;28;20170;-75
2021/08/13 00:37:31;;;;;;;7.28;6.53;;;;;;;19.05;69.90;101061.28;4945771;28;20031;-76
2021/08/13 00:39:57;;;;;;;9.45;6.25;;;;;;;19.04;69.25;101059.50;4943618;29;20609;-75
2021/08/13 00:42:23;;;;;;;9.25;5.90;;;;;;;19.05;69.46;101063.06;4946617;28;20031;-76
2021/08/13 00:44:50;;;;;;;8.02;5.70;;;;;;;19.00;69.95;101059.69;4945783;28;20034;-75
2021/08/13 00:47:16;;;;;;;5.82;5.22;;;;;;;18.98;69.62;101061.53;4959242;28;20489;-76
2021/08/13 00:50:02;;;;;;;6.47;5.57;;;;;;;18.93;69.82;101058.13;4965283;28;20085;-74
2021/08/13 00:52:41;;;;;;;7.72;6.47;;;;;;;18.84;70.45;101059.31;4945560;28;20031;-76
2021/08/13 00:55:08;;;;;;;9.38;6.43;;;;;;;18.68;70.79;101057.97;4947124;28;20387;-76
2021/08/13 00:57:53;;;;;;;7.97;6.00;;;;;;;18.64;70.86;101051.88;4965284;28;20078;-75
2021/08/13 01:00:28;;;;;;;9.48;6.80;;;;;;;18.57;71.28;101055.66;4945576;28;20050;-76
2021/08/13 01:02:55;;;;;;;10.00;6.28;;;;;;;18.53;71.43;101049.53;4959383;28;20070;-75
2021/08/13 01:05:21;;;;;;;8.18;6.22;;;;;;;18.52;71.36;101046.88;4961060;28;20117;-75
2021/08/13 01:07:48;;;;;;;7.72;6.70;;;;;;;18.46;71.50;101047.09;4959188;28;20034;-75
2021/08/13 01:10:16;;;;;;;9.50;6.93;;;;;;;18.34;72.56;101045.69;4960190;28;20077;-76
2021/08/13 01:12:49;;;;;;;7.25;6.30;;;;;;;18.27;72.31;101050.31;4947558;28;20034;-76
2021/08/13 01:15:16;;;;;;;7.47;6.38;;;;;;;18.23;72.63;101054.00;4944128;29;20495;-76
2021/08/13 01:17:47;;;;;;;8.43;6.68;;;;;;;18.14;73.04;101046.25;4962783;28;20482;-76
2021/08/13 01:21:09;;;;;;;8.57;7.25;;;;;;;18.06;73.79;101042.94;4959964;28;20035;-74
2021/08/13 01:23:48;;;;;;;7.50;6.70;;;;;;;17.99;73.27;101039.56;4959944;28;20094;-75
2021/08/13 01:26:15;;;;;;;8.15;6.60;;;;;;;17.94;73.48;101045.03;4964700;28;20118;-75
2021/08/13 01:28:53;;;;;;;8.18;6.20;;;;;;;17.84;74.12;101042.66;4945132;28;20047;-75
2021/08/13 01:31:21;;;;;;;8.43;6.68;;;;;;;17.76;74.09;101045.50;4944658;28;20031;-75
2021/08/13 01:33:53;;;;;;;9.13;7.55;;;;;;;17.69;74.23;101046.63;4946949;28;20038;-76
2021/08/13 01:36:19;;;;;;;7.95;6.40;;;;;;;17.67;74.63;101035.97;4959428;28;20027;-76
2021/08/13 01:38:47;;;;;;;9.52;7.55;;;;;;;17.68;74.55;101047.50;4959820;28;20091;-75
2021/08/13 01:41:14;;;;;;;7.72;6.93;;;;;;;17.71;74.32;101047.44;4947256;28;20584;-76
2021/08/13 01:43:43;;;;;;;8.50;7.13;;;;;;;17.70;74.31;101040.34;4944013;28;20031;-76
2021/08/13 01:46:13;;;;;;;8.07;6.63;;;;;;;17.70;74.73;101043.88;4946111;28;20134;-75
2021/08/13 01:48:49;;;;;;;7.10;6.35;;;;;;;17.70;74.13;101041.22;4942565;29;20417;-75
2021/08/13 01:51:17;;;;;;;7.45;6.75;;;;;;;17.69;74.42;101047.47;4962958;28;20121;-75
2021/08/13 01:53:46;;;;;;;8.00;6.90;;;;;;;17.67;74.67;101048.44;4944654;28;20042;-75
2021/08/13 01:56:13;;;;;;;8.15;6.65;;;;;;;17.65;74.48;101043.13;4962172;28;20039;-75
2021/08/13 01:58:41;;;;;;;8.98;7.15;;;;;;;17.67;74.56;101051.13;4950588;28;20034;-75
2021/08/13 02:01:11;;;;;;;8.82;6.97;;;;;;;17.65;74.43;101059.16;4943773;29;20081;-75
2021/08/13 02:03:39;;;;;;;9.10;7.53;;;;;;;17.56;74.35;101059.41;4943410;29;20042;-75
2021/08/13 02:06:06;;;;;;;7.95;7.15;;;;;;;17.50;75.01;101055.13;4954320;28;20493;-75
2021/08/13 02:08:36;;;;;;;8.00;7.20;;;;;;;17.46;75.01;101058.78;4954783;28;20042;-75
2021/08/13 02:11:06;;;;;;;7.57;6.78;;;;;;;17.42;75.32;101051.78;4969724;28;20093;-74
2021/08/13 02:13:34;;;;;;;7.65;6.45;;;;;;;17.40;75.38;101058.94;4968084;28;20112;-76
2021/08/13 02:16:07;;;;;;;7.80;6.72;;;;;;;17.39;75.22;101056.31;4940915;29;20027;-75
2021/08/13 02:18:34;;;;;;;8.43;7.63;;;;;;;17.42;75.87;101056.22;4963054;28;20030;-75
2021/08/13 02:21:06;;;;;;;10.05;8.32;;;;;;;17.37;76.16;101052.78;4948649;28;20039;-76
2021/08/13 02:23:33;;;;;;;10.00;7.10;;;;;;;17.42;75.83;101050.88;4960315;28;20043;-74
2021/08/13 02:26:02;;;;;;;9.57;8.38;;;;;;;17.50;75.92;101047.13;4942546;29;20042;-75
2021/08/13 02:30:58;;;;;;;8.38;7.45;;;;;;;17.59;75.61;101045.13;4943635;29;20135;-76
2021/08/13 02:33:25;;;;;;;7.78;6.97;;;;;;;17.67;75.51;101040.44;4929224;29;20067;-76
2021/08/13 02:36:00;;;;;;;9.10;6.97;;;;;;;17.71;75.49;101047.44;4928251;29;20344;-76
2021/08/13 02:38:31;;;;;;;9.70;7.60;;;;;;;17.74;75.35;101042.03;4944130;28;20085;-76
2021/08/13 02:41:00;;;;;;;7.95;7.03;;;;;;;17.79;74.83;101045.47;4946121;29;20130;-76
2021/08/13 02:43:48;;;;;;;9.32;8.35;;;;;;;17.82;74.97;101042.72;4927735;29;20063;-76
2021/08/13 02:46:14;;;;;;;10.98;9.88;;;;;;;17.77;74.69;101047.28;4927879;29;20406;-76
2021/08/13 02:48:42;;;;;;;8.95;7.38;;;;;;;17.75;75.26;101046.44;4929776;28;20637;-76
2021/08/13 02:51:14;;;;;;;9.93;7.55;;;;;;;17.79;75.16;101045.47;4929145;29;20122;-76
2021/08/13 02:53:44;;;;;;;10.05;7.88;;;;;;;17.81;74.72;101048.97;4927947;29;20070;-76
2021/08/13 02:56:11;;;;;;;8.02;7.22;;;;;;;17.83;74.97;101044.47;4929396;29;20055;-76
2021/08/13 02:58:43;;;;;;;9.90;7.80;;;;;;;17.81;74.86;101046.28;4929309;28;20487;-76
2021/08/13 03:01:12;;;;;;;10.52;7.90;;;;;;;17.79;75.36;101044.53;4927571;29;20082;-76
2021/08/13 03:03:38;;;;;;;9.63;7.93;;;;;;;17.73;75.58;101043.78;4945509;29;20035;-76
2021/08/13 03:06:06;;;;;;;9.88;7.50;;;;;;;17.73;75.29;101045.59;4925721;29;20042;-76
2021/08/13 03:08:34;;;;;;;8.88;7.93;;;;;;;17.74;75.26;101050.91;4947484;28;20043;-76
2021/08/13 03:11:03;;;;;;;11.77;9.63;;;;;;;17.68;74.98;101042.19;4927748;29;20059;-76
2021/08/13 03:13:30;;;;;;;15.27;11.10;;;;;;;17.66;75.32;101047.56;4928789;29;20122;-76
2021/08/13 03:15:56;;;;;;;15.48;11.07;;;;;;;17.64;75.43;101045.88;4930336;28;20040;-76
2021/08/13 03:18:27;;;;;;;9.68;8.68;;;;;;;17.65;75.35;101045.81;4933692;29;20027;-76
2021/08/13 03:20:53;;;;;;;9.68;7.82;;;;;;;17.61;75.79;101057.50;4945571;29;20046;-76
2021/08/13 03:23:19;;;;;;;9.93;8.60;;;;;;;17.50;75.84;101055.13;4928198;29;20450;-76
2021/08/13 03:25:46;;;;;;;11.82;8.40;;;;;;;17.50;76.19;101054.22;4926010;29;20040;-76
2021/08/13 03:28:16;;;;;;;8.63;7.65;;;;;;;17.50;76.40;101055.13;4927948;29;20039;-76
2021/08/13 03:30:44;;;;;;;8.65;7.53;;;;;;;17.51;76.01;101054.19;4945510;28;20054;-76
2021/08/13 03:33:16;;;;;;;10.90;7.10;;;;;;;17.46;76.45;101064.09;4926404;29;20383;-76
2021/08/13 03:35:43;;;;;;;8.85;7.95;;;;;;;17.49;76.54;101065.81;4929229;29;20039;-76
2021/08/13 03:38:09;;;;;;;9.43;7.82;;;;;;;17.48;76.74;101066.75;4929241;29;20031;-76
2021/08/13 03:40:34;;;;;;;10.13;8.35;;;;;;;17.50;76.61;101065.78;4943065;29;20043;-76
2021/08/13 03:43:01;;;;;;;9.05;7.88;;;;;;;17.53;76.28;101062.16;4934184;29;20058;-76
2021/08/13 03:45:26;;;;;;;11.48;8.30;;;;;;;17.57;76.54;101066.50;4945004;29;20062;-76
2021/08/13 03:47:52;;;;;;;9.15;8.13;;;;;;;17.55;76.51;101062.13;4944918;29;20500;-76
2021/08/13 03:50:18;;;;;;;8.40;6.82;;;;;;;17.60;76.14;101065.53;4929830;29;20513;-76
2021/08/13 03:52:44;;;;;;;9.07;8.18;;;;;;;17.59;76.35;101074.47;4924302;29;20115;-76
2021/08/13 03:55:13;;;;;;;10.65;8.85;;;;;;;17.59;76.57;101069.13;4926307;29;20479;-75
2021/08/13 03:57:40;;;;;;;9.77;8.27;;;;;;;17.56;76.62;101069.22;4928427;29;20061;-75
2021/08/13 04:00:06;;;;;;;10.48;8.48;;;;;;;17.58;76.38;101067.34;4945513;29;20077;-76
2021/08/13 04:02:43;;;;;;;10.63;8.98;;;;;;;17.60;76.18;101062.88;4944209;29;20047;-75
2021/08/13 04:05:10;;;;;;;13.55;10.68;;;;;;;17.59;76.12;101063.78;4945785;29;20505;-75
2021/08/13 04:07:36;;;;;;;11.25;10.15;;;;;;;17.61;75.77;101073.50;4943936;29;20066;-76
2021/08/13 04:10:04;;;;;;;11.73;9.77;;;;;;;17.70;75.42;101067.91;4945781;29;20521;-75
2021/08/13 04:12:29;;;;;;;10.30;9.20;;;;;;;17.74;75.94;101068.72;4944406;29;20445;-76
2021/08/13 04:15:15;;;;;;;9.93;8.90;;;;;;;17.78;75.51;101070.38;4943308;29;20051;-76
2021/08/13 04:17:40;;;;;;;10.82;8.38;;;;;;;17.82;75.51;101072.09;4928086;29;20039;-76
2021/08/13 04:20:07;;;;;;;12.60;10.57;;;;;;;17.82;75.79;101074.75;4939480;29;20067;-76
2021/08/13 04:22:36;;;;;;;13.30;11.90;;;;;;;17.84;76.30;101080.03;4929084;29;20498;-76
2021/08/13 04:25:02;;;;;;;13.02;10.82;;;;;;;17.90;75.72;101071.88;4926067;29;20035;-75
2021/08/13 04:27:28;;;;;;;15.73;10.93;;;;;;;17.99;75.43;101073.41;4927436;29;20031;-75
2021/08/13 04:29:54;;;;;;;12.50;11.30;;;;;;;18.02;74.90;101057.28;4937203;29;20047;-76
2021/08/13 04:32:19;;;;;;;12.27;10.93;;;;;;;18.07;74.40;101060.69;4926680;29;20040;-75
2021/08/13 04:34:46;;;;;;;12.90;11.57;;;;;;;18.10;74.25;101058.84;4931860;29;20038;-75
2021/08/13 04:37:14;;;;;;;17.52;15.02;;;;;;;18.14;74.17;101052.47;4927110;29;20057;-76
2021/08/13 04:39:40;;;;;;;19.15;17.17;;;;;;;18.21;74.31;101052.28;4928221;29;20514;-76
2021/08/13 04:42:06;;;;;;;17.20;15.50;;;;;;;18.30;73.82;101044.88;4927821;29;20043;-76
2021/08/13 04:44:31;;;;;;;20.08;17.98;;;;;;;18.40;73.95;101046.34;4925571;29;20854;-75
2021/08/13 04:46:57;;;;;;;19.20;17.33;;;;;;;18.50;73.46;101052.31;4929241;29;20082;-75
2021/08/13 04:49:22;;;;;;;17.58;14.68;;;;;;;18.58;73.21;101052.94;4933412;29;20066;-76
2021/08/13 04:51:47;;;;;;;14.80;13.18;;;;;;;18.64;72.86;101057.22;4927982;29;20039;-76
2021/08/13 04:54:13;;;;;;;14.32;12.50;;;;;;;18.74;72.45;101057.81;4946556;29;20054;-76
2021/08/13 04:56:38;;;;;;;15.18;13.57;;;;;;;18.82;72.31;101062.00;4926233;29;20031;-76
2021/08/13 04:59:04;;;;;;;13.75;11.63;;;;;;;18.91;72.36;101066.19;4944682;29;20039;-75
2021/08/13 05:01:43;;;;;;;13.52;12.13;;;;;;;19.02;71.54;101073.84;4925145;29;20047;-76
2021/08/13 05:04:09;;;;;;;13.70;10.57;;;;;;;19.11;71.27;101072.69;4927712;29;20501;-75
2021/08/13 05:06:35;;;;;;;17.70;15.15;;;;;;;19.22;71.23;101071.41;4923318;29;20027;-76
2021/08/13 05:09:01;;;;;;;13.30;11.15;;;;;;;19.27;71.20;101074.81;4927588;29;20408;-76
2021/08/13 05:11:26;;;;;;;10.95;9.35;;;;;;;19.33;70.66;101068.34;4942317;29;20233;-76
2021/08/13 05:13:52;;;;;;;11.88;9.40;;;;;;;19.38;70.64;101078.91;4928048;29;20043;-76
2021/08/13 05:16:17;;;;;;;12.57;9.95;;;;;;;19.48;70.40;101073.19;4925958;29;20030;-76
2021/08/13 05:18:43;;;;;;;10.35;9.25;;;;;;;19.45;70.90;101065.28;4926442;28;20501;-76
2021/08/13 05:21:09;;;;;;;9.45;8.30;;;;;;;19.51;70.54;101064.19;4927639;29;20038;-76
2021/08/13 05:23:35;;;;;;;12.18;10.30;;;;;;;19.58;70.44;101068.41;4925154;29;20039;-76
2021/08/13 05:26:02;;;;;;;11.10;9.55;;;;;;;19.66;69.78;101071.72;4927189;29;20536;-75
2021/08/13 05:28:29;;;;;;;12.32;10.13;;;;;;;19.74;69.97;101079.47;4923304;29;20577;-76
2021/08/13 05:30:54;;;;;;;11.38;8.35;;;;;;;19.68;69.54;101079.72;4927248;29;20151;-76
2021/08/13 05:33:21;;;;;;;11.98;8.60;;;;;;;19.72;69.38;101075.09;4925011;29;20118;-76
2021/08/13 05:35:47;;;;;;;22.13;14.40;;;;;;;19.73;69.47;101066.13;4927160;29;20174;-76
2021/08/13 05:38:12;;;;;;;12.82;11.50;;;;;;;19.81;69.68;101072.13;4938763;29;20707;-76
2021/08/13 05:40:41;;;;;;;15.60;12.88;;;;;;;19.87;69.10;101077.25;4943035;29;20031;-76
2021/08/13 05:43:09;;;;;;;13.63;11.27;;;;;;;19.90;69.03;101071.75;4924759;29;20032;-76
2021/08/13 05:45:34;;;;;;;14.43;10.23;;;;;;;19.85;69.36;101068.38;4927132;29;20401;-76
2021/08/13 05:48:00;;;;;;;11.57;10.40;;;;;;;19.79;70.17;101073.97;4938906;29;20383;-76
2021/08/13 05:50:25;;;;;;;17.90;12.68;;;;;;;19.70;69.79;101072.47;4926804;29;20541;-76
2021/08/13 05:52:51;;;;;;;12.77;11.45;;;;;;;19.61;70.40;101084.34;4924979;29;20139;-76
2021/08/13 05:55:16;;;;;;;13.63;10.23;;;;;;;19.60;70.88;101085.28;4945712;29;20031;-76
2021/08/13 05:57:44;;;;;;;11.50;9.52;;;;;;;19.64;70.88;101089.59;4926945;29;20043;-76
2021/08/13 06:00:11;;;;;;;10.38;9.35;;;;;;;19.59;70.27;101094.25;4926823;29;20405;-76
2021/08/13 06:03:00;;;;;;;11.60;8.60;;;;;;;19.59;70.77;101088.88;4927386;29;20035;-76
2021/08/13 06:05:27;;;;;;;10.63;9.00;;;;;;;19.58;71.30;101095.19;4948991;29;20031;-76
2021/08/13 06:07:56;;;;;;;14.38;9.52;;;;;;;19.52;71.46;101103.44;4929206;29;20093;-75
2021/08/13 06:10:22;;;;;;;10.40;9.30;;;;;;;19.55;71.82;101095.28;4929988;29;20565;-76
2021/08/13 06:12:48;;;;;;;12.52;9.38;;;;;;;19.62;71.90;101091.47;4927385;29;20032;-76
2021/08/13 06:15:15;;;;;;;10.38;8.60;;;;;;;19.73;70.84;101100.94;4946943;29;20031;-76
2021/08/13 06:17:42;;;;;;;11.63;8.95;;;;;;;19.83;70.89;101091.66;4945917;29;20042;-76
2021/08/13 06:20:09;;;;;;;11.60;10.30;;;;;;;20.00;70.73;101089.25;4947104;29;20031;-76
2021/08/13 06:22:35;;;;;;;12.70;10.52;;;;;;;20.14;69.98;101084.25;4927488;29;20039;-76
2021/08/13 06:25:01;;;;;;;11.77;10.57;;;;;;;20.29;69.81;101082.81;4946973;29;20054;-76
2021/08/13 06:27:26;;;;;;;14.23;11.25;;;;;;;20.44;68.89;101075.13;4925200;29;20035;-76
2021/08/13 06:29:52;;;;;;;15.57;12.98;;;;;;;20.58;69.00;101076.38;4934907;29;20112;-76
2021/08/13 06:32:19;;;;;;;13.02;9.77;;;;;;;20.67;68.47;101082.28;4928987;29;20088;-76
2021/08/13 06:34:46;;;;;;;13.20;10.90;;;;;;;20.66;68.45;101081.44;4931071;29;20135;-76
2021/08/13 06:37:12;;;;;;;13.30;10.75;;;;;;;20.73;67.73;101072.22;4928019;29;20559;-76
2021/08/13 06:39:37;;;;;;;14.18;10.38;;;;;;;20.81;67.60;101063.00;4930047;29;20039;-76
2021/08/13 06:42:03;;;;;;;11.52;9.13;;;;;;;20.83;67.52;101078.09;4929521;29;20039;-76
2021/08/13 06:44:31;;;;;;;13.38;9.18;;;;;;;20.98;66.39;101072.06;4927782;29;20036;-76
2021/08/13 06:46:57;;;;;;;9.75;8.75;;;;;;;21.11;66.11;101060.84;4927664;29;20039;-76
2021/08/13 06:49:22;;;;;;;13.00;8.90;;;;;;;21.20;66.22;101061.34;4929923;29;20034;-76
2021/08/13 06:51:48;;;;;;;11.93;9.27;;;;;;;21.33;65.41;101077.81;4929165;29;20044;-76
2021/08/13 06:54:13;;;;;;;9.50;7.05;;;;;;;21.44;64.20;101059.47;4928462;29;20063;-76
2021/08/13 06:56:38;;;;;;;14.52;12.48;;;;;;;21.59;64.11;101079.41;4947537;29;20039;-76
2021/08/13 06:59:04;;;;;;;10.57;9.02;;;;;;;21.72;63.78;101077.06;4927614;29;20038;-76
2021/08/13 07:01:29;;;;;;;10.73;9.40;;;;;;;21.83;62.35;101072.09;4929715;29;20031;-76
2021/08/13 07:03:56;;;;;;;10.35;8.75;;;;;;;21.96;62.43;101076.94;4926271;29;20509;-76
2021/08/13 07:06:22;;;;;;;10.18;8.35;;;;;;;22.04;62.35;101080.13;4945763;29;20126;-76
2021/08/13 07:08:47;;;;;;;11.65;8.63;;;;;;;22.20;61.91;101075.84;4944594;29;20122;-75
2021/08/13 07:11:13;;;;;;;10.35;8.07;;;;;;;22.35;61.68;101076.97;4929974;29;20058;-76
2021/08/13 07:13:38;;;;;;;9.98;7.35;;;;;;;22.43;60.90;101069.41;4945723;29;20091;-76
2021/08/13 07:16:04;;;;;;;10.52;9.07;;;;;;;22.55;61.05;101073.31;4928045;29;20083;-76
2021/08/13 07:18:34;;;;;;;10.93;9.70;;;;;;;22.69;60.60;101068.16;4926686;29;20066;-75
2021/08/13 07:21:00;;;;;;;10.25;8.32;;;;;;;22.72;59.70;101062.63;4929655;29;20034;-76
2021/08/13 07:23:26;;;;;;;9.38;6.40;;;;;;;22.82;60.13;101064.84;4945673;29;20502;-76
2021/08/13 07:25:51;;;;;;;11.43;10.23;;;;;;;22.90;60.20;101062.69;4927742;29;20517;-76
2021/08/13 07:28:16;;;;;;;9.70;6.88;;;;;;;22.98;59.54;101060.50;4938754;29;20071;-76
2021/08/13 07:30:44;;;;;;;11.25;7.22;;;;;;;23.08;59.24;101066.28;4930887;29;20055;-76
2021/08/13 07:33:09;;;;;;;9.43;6.60;;;;;;;23.13;59.27;101059.75;4946293;29;20705;-76
2021/08/13 07:35:34;;;;;;;11.18;8.00;;;;;;;23.22;58.58;101062.94;4948954;29;20035;-76
2021/08/13 07:38:03;;;;;;;13.85;9.52;;;;;;;23.32;58.56;101072.28;4928437;29;20047;-76
2021/08/13 07:40:28;;;;;;;12.18;8.73;;;;;;;23.29;57.83;101067.94;4949493;28;20501;-76
2021/08/13 07:42:55;;;;;;;12.40;9.20;;;;;;;23.36;57.97;101071.16;4932082;29;20453;-75
2021/08/13 07:45:22;;;;;;;10.45;8.40;;;;;;;23.50;57.83;101071.34;4940755;29;20039;-76
2021/08/13 07:47:47;;;;;;;12.38;9.95;;;;;;;23.59;58.24;101078.06;4929347;29;20472;-75
2021/08/13 07:50:12;;;;;;;9.15;8.07;;;;;;;23.63;57.71;101077.84;4934112;29;20123;-76
2021/08/13 07:52:39;;;;;;;12.20;8.40;;;;;;;23.69;58.47;101075.78;4929138;29;20035;-75
2021/08/13 07:55:06;;;;;;;13.18;9.35;;;;;;;23.73;57.07;101066.59;4924876;29;20032;-76
2021/08/13 07:57:32;;;;;;;10.70;7.57;;;;;;;23.77;57.55;101085.22;4944782;29;20035;-76
2021/08/13 08:00:01;;;;;;;16.70;13.10;;;;;;;23.88;58.37;101083.78;4926430;29;20039;-76
2021/08/13 08:02:29;;;;;;;10.07;9.07;;;;;;;23.95;57.81;101079.84;4932247;29;20039;-76
2021/08/13 08:04:54;;;;;;;14.88;12.20;;;;;;;24.02;57.30;101083.91;4945588;29;20490;-76
2021/08/13 08:07:19;;;;;;;14.00;11.68;;;;;;;24.08;57.47;101089.00;4944230;29;20040;-76
2021/08/13 08:09:44;;;;;;;11.40;9.60;;;;;;;24.18;56.47;101089.34;4946365;28;20045;-76
2021/08/13 08:12:10;;;;;;;14.77;9.40;;;;;;;24.29;56.83;101086.97;4943592;29;20043;-75
2021/08/13 08:14:35;;;;;;;11.05;7.90;;;;;;;24.43;56.89;101084.38;4945758;29;20054;-76
2021/08/13 08:17:00;;;;;;;12.63;7.82;;;;;;;24.55;56.85;101095.47;4945308;29;20040;-76
2021/08/13 08:19:26;;;;;;;11.30;8.20;;;;;;;24.52;55.92;101092.94;4944111;29;20446;-76
2021/08/13 08:21:52;;;;;;;11.63;8.15;;;;;;;24.58;55.83;101090.78;4941965;29;20071;-76
2021/08/13 08:24:17;;;;;;;10.48;7.15;;;;;;;24.71;56.54;101088.28;4945915;29;20063;-76
2021/08/13 08:26:42;;;;;;;9.55;7.13;;;;;;;24.77;55.62;101087.03;4943561;28;20083;-76
2021/08/13 08:31:47;;;;;;;12.80;10.57;;;;;;;24.87;54.81;101075.63;4963339;28;20077;-75
2021/08/13 08:34:12;;;;;;;10.45;7.78;;;;;;;24.95;54.34;101079.72;4962536;28;20038;-76
2021/08/13 08:36:38;;;;;;;11.82;9.43;;;;;;;25.07;54.18;101070.91;4965129;28;20055;-76
2021/08/13 08:39:04;;;;;;;9.07;7.68;;;;;;;25.15;54.18;101076.72;4962619;28;20128;-76
2021/08/13 08:41:29;;;;;;;10.98;8.60;;;;;;;25.24;53.76;101070.81;4964910;28;20027;-76
2021/08/13 08:43:55;;;;;;;10.70;7.50;;;;;;;25.31;53.90;101074.91;4962463;28;20043;-76
2021/08/13 08:46:21;;;;;;;10.30;6.03;;;;;;;25.38;53.13;101079.94;4964355;28;20042;-76
2021/08/13 08:48:52;;;;;;;10.18;7.97;;;;;;;25.40;52.75;101083.44;4962970;28;20105;-76
2021/08/13 08:51:18;;;;;;;11.77;7.60;;;;;;;25.48;53.06;101086.53;4963640;28;20050;-75
2021/08/13 08:53:50;;;;;;;9.60;7.50;;;;;;;25.46;53.38;101083.91;4964029;28;20050;-75
2021/08/13 08:56:17;;;;;;;10.35;6.05;;;;;;;25.66;53.19;101092.69;4962039;28;20429;-76
2021/08/13 08:58:45;;;;;;;7.38;5.70;;;;;;;25.72;52.58;101090.44;4964933;28;20404;-76
2021/08/13 09:01:12;;;;;;;13.68;8.88;;;;;;;25.86;52.68;101088.78;4961557;28;20490;-76
2021/08/13 09:03:37;;;;;;;7.78;6.10;;;;;;;25.92;52.19;101083.88;4965092;28;20046;-76
2021/08/13 09:06:03;;;;;;;12.77;10.50;;;;;;;26.05;51.94;101084.00;4961800;28;20512;-75
2021/08/13 09:08:29;;;;;;;9.00;7.93;;;;;;;26.15;51.97;101095.97;4964803;28;20504;-75
2021/08/13 09:10:54;;;;;;;8.85;6.38;;;;;;;26.28;52.01;101085.25;4961882;28;20047;-76
2021/08/13 09:13:23;;;;;;;12.13;7.00;;;;;;;26.47;52.01;101079.53;4964197;28;20042;-76
2021/08/13 09:15:48;;;;;;;9.88;6.00;;;;;;;26.56;51.31;101072.69;4945371;28;20031;-76
2021/08/13 09:18:14;;;;;;;6.07;4.65;;;;;;;26.61;50.14;101071.41;4963693;28;20038;-76
2021/08/13 09:20:53;;;;;;;13.40;9.35;;;;;;;26.71;50.12;101081.66;4962609;28;20050;-76
2021/08/13 09:23:37;;;;;;;13.45;12.05;;;;;;;26.71;49.17;101084.38;4964986;28;20043;-76
2021/08/13 09:26:07;;;;;;;7.15;5.05;;;;;;;26.82;48.26;101079.09;4963196;28;20047;-76
2021/08/13 09:29:00;;;;;;;8.80;5.93;;;;;;;26.86;47.49;101077.94;4962565;28;20150;-76
2021/08/13 09:31:40;;;;;;;7.00;4.70;;;;;;;26.96;46.85;101079.09;4944603;28;20038;-75
2021/08/13 09:34:10;;;;;;;9.00;4.88;;;;;;;27.01;47.05;101081.47;4946876;28;20416;-76
2021/08/13 09:37:02;;;;;;;9.00;5.18;;;;;;;27.08;47.00;101088.22;4941793;28;20122;-76
2021/08/13 09:39:30;;;;;;;8.02;4.65;;;;;;;27.17;47.29;101097.56;4958349;28;20101;-76
2021/08/13 09:41:57;;;;;;;6.65;4.80;;;;;;;27.20;46.63;101090.16;4945745;28;20061;-76
2021/08/13 09:44:32;;;;;;;9.48;5.03;;;;;;;27.14;47.83;101086.94;4962843;28;20043;-76
2021/08/13 09:46:59;;;;;;;7.10;4.47;;;;;;;27.18;45.97;101078.53;4943612;29;20039;-76
2021/08/13 09:49:25;;;;;;;10.80;6.50;;;;;;;27.21;46.80;101069.34;4959362;28;20043;-76
2021/08/13 09:51:50;;;;;;;7.95;6.18;;;;;;;27.31;47.38;101067.75;4948164;28;20035;-76
2021/08/13 09:54:16;;;;;;;6.85;4.20;;;;;;;27.46;45.36;101068.56;4963517;28;20035;-76
2021/08/13 09:56:42;;;;;;;6.38;4.35;;;;;;;27.49;46.61;101074.63;4963943;28;20038;-76
2021/08/13 09:59:14;;;;;;;7.93;5.80;;;;;;;27.65;46.17;101073.56;4962901;28;20035;-76
2021/08/13 10:01:42;;;;;;;8.82;6.63;;;;;;;27.85;44.91;101073.09;4945633;28;20394;-76
2021/08/13 10:04:08;;;;;;;11.43;7.93;;;;;;;27.94;44.49;101074.28;4947260;28;20501;-76
2021/08/13 10:06:35;;;;;;;8.75;6.85;;;;;;;27.96;43.50;101058.75;4946107;28;20033;-75
2021/08/13 10:09:02;;;;;;;6.88;4.40;;;;;;;28.01;43.74;101047.56;4962989;28;20086;-76
2021/08/13 10:11:28;;;;;;;6.43;5.65;;;;;;;28.07;44.20;101044.44;4961519;28;20039;-76
2021/08/13 10:13:55;;;;;;;8.38;4.22;;;;;;;28.24;42.95;101049.50;4942932;29;20031;-76
2021/08/13 10:16:27;;;;;;;6.95;4.22;;;;;;;28.31;43.29;101050.78;4954062;28;20117;-76
2021/08/13 10:18:58;;;;;;;7.20;5.22;;;;;;;28.39;44.31;101059.25;4937852;28;20037;-76
2021/08/13 10:21:28;;;;;;;;;;;;;;;28.40;43.47;101052.84;4937861;28;20125;-77
2021/08/13 10:23:55;;;;;;;7.93;5.93;;;;;;;28.61;43.35;101053.16;4942149;29;19953;-76
2021/08/13 10:26:22;;;;;;;5.32;3.58;;;;;;;28.70;42.12;101051.59;4961486;28;20035;-77
2021/08/13 10:28:50;;;;;;;5.40;4.45;;;;;;;28.88;41.27;101056.66;4961832;28;20117;-76
2021/08/13 10:31:18;;;;;;;5.75;4.20;;;;;;;28.85;40.74;101055.03;4942951;29;20031;-76
2021/08/13 10:33:52;;;;;;;6.82;4.63;;;;;;;28.81;41.81;101054.38;4959720;28;20047;-76
2021/08/13 10:36:19;;;;;;;6.07;4.28;;;;;;;28.94;41.89;101064.31;4963613;28;20039;-77
2021/08/13 10:38:50;;;;;;;6.25;4.03;;;;;;;28.99;41.69;101060.28;4940784;28;20489;-77
2021/08/13 10:41:20;;;;;;;6.15;4.65;;;;;;;28.98;41.15;101054.97;4944244;28;20035;-77
2021/08/13 10:43:48;;;;;;;8.98;4.03;;;;;;;29.13;41.70;101059.25;4944412;28;20035;-76
2021/08/13 10:46:18;;;;;;;7.00;4.85;;;;;;;29.18;41.58;101048.91;4947795;28;20527;-76
2021/08/13 10:48:47;;;;;;;7.38;6.55;;;;;;;29.22;41.09;101044.97;4952570;28;20500;-76
2021/08/13 10:51:13;;;;;;;7.88;4.75;;;;;;;29.24;40.30;101048.47;4966823;28;20133;-77
2021/08/13 10:53:40;;;;;;;5.75;4.65;;;;;;;29.20;41.39;101043.38;4972273;28;20031;-77
2021/08/13 10:56:40;;;;;;;5.93;4.40;;;;;;;29.28;40.49;101044.50;4955613;28;20023;-76
2021/08/13 10:59:10;;;;;;;7.32;6.40;;;;;;;29.30;39.86;101044.41;4948740;28;20031;-78
2021/08/13 11:02:14;;;;;;;8.90;5.88;;;;;;;29.43;39.71;101039.75;4956874;28;20081;-75
2021/08/13 11:04:51;;;;;;;8.18;4.63;;;;;;;29.79;40.57;101035.16;4946220;29;20035;-76
2021/08/13 11:07:56;;;;;;;7.80;4.50;;;;;;;29.82;39.10;101042.22;4949977;28;20493;-77
2021/08/13 11:10:37;;;;;;;6.78;4.78;;;;;;;29.76;39.54;101040.81;4965367;28;20401;-77
2021/08/13 11:13:20;;;;;;;6.00;5.30;;;;;;;29.87;38.38;101048.16;4937494;28;20063;-76
2021/08/13 11:15:54;;;;;;;8.00;5.85;;;;;;;30.00;39.43;101037.16;4949062;28;20278;-76
2021/08/13 11:18:40;;;;;;;8.85;5.90;;;;;;;30.23;39.08;101038.03;4947286;28;20046;-76
2021/08/13 11:21:11;;;;;;;8.95;6.03;;;;;;;30.27;38.05;101034.97;4946259;28;20031;-76
2021/08/13 11:23:59;;;;;;;8.07;4.38;;;;;;;30.21;39.17;101030.00;4936655;28;20437;-76
2021/08/13 11:26:52;;;;;;;8.10;6.15;;;;;;;30.30;39.24;101036.56;4946412;28;20134;-76
2021/08/13 11:29:34;;;;;;;9.07;7.70;;;;;;;30.49;38.31;101036.78;4945986;28;20035;-76
2021/08/13 11:32:16;;;;;;;8.80;7.90;;;;;;;30.65;37.68;101038.25;4946678;28;20127;-77